Time;durP1;ratioP1;P1;durP2;ratioP2;P2;SDS_P1;SDS_P2;PMS_P1;PMS_P2;Temp;Humidity;BMP_temperature;BMP_pressure;BME280_temperature;BME280_humidity;BME280_pressure;Samples;Min_cycle;Max_cycle;Signal;HPM_P1;HPM_P2
2023/01/28 00:04:25;;;;;;;12.90;8.75;;;;;;;3.10;100.00;103040.88;10381486;28;20046;-69
2023/01/28 00:09:25;;;;;;;13.48;10.48;;;;;;;3.13;100.00;103043.38;10380821;28;20116;-69
2023/01/28 00:14:25;;;;;;;16.70;10.27;;;;;;;3.14;100.00;103047.75;10379441;28;20033;-69
2023/01/28 00:19:26;;;;;;;13.23;9.38;;;;;;;3.14;100.00;103037.91;10382043;28;20057;-69
2023/01/28 00:24:26;;;;;;;15.63;10.80;;;;;;;3.15;100.00;103030.72;10380324;28;20042;-69
2023/01/28 00:29:27;;;;;;;13.60;10.30;;;;;;;3.16;100.00;103030.66;10379477;28;20091;-69
2023/01/28 00:34:27;;;;;;;14.80;10.20;;;;;;;3.14;100.00;103024.53;10379037;28;20069;-69
2023/01/28 00:39:28;;;;;;;12.15;9.95;;;;;;;3.12;100.00;103023.75;10362032;28;20046;-69
2023/01/28 00:44:28;;;;;;;13.38;10.48;;;;;;;3.12;100.00;103028.25;10380506;28;20440;-69
2023/01/28 00:49:30;;;;;;;14.15;10.13;;;;;;;3.07;100.00;103027.69;10379684;28;20076;-69
2023/01/28 00:54:31;;;;;;;11.75;10.40;;;;;;;3.02;100.00;103028.81;10379814;28;20450;-68
2023/01/28 00:59:31;;;;;;;11.27;9.90;;;;;;;3.05;100.00;103026.91;10378781;28;20037;-69
2023/01/28 01:04:34;;;;;;;12.63;10.38;;;;;;;3.06;100.00;103033.97;10379213;28;20100;-69
2023/01/28 01:09:34;;;;;;;11.50;10.02;;;;;;;3.08;100.00;103037.44;10378457;28;20069;-69
2023/01/28 01:14:34;;;;;;;15.10;10.80;;;;;;;3.05;100.00;103029.59;10377854;28;20061;-69
2023/01/28 01:19:36;;;;;;;15.85;10.90;;;;;;;3.03;100.00;103038.59;10380734;28;20080;-69
2023/01/28 01:24:36;;;;;;;16.45;10.75;;;;;;;3.05;100.00;103035.81;10394344;28;20517;-69
2023/01/28 01:29:37;;;;;;;13.93;11.73;;;;;;;3.06;100.00;103037.50;10377549;28;20042;-69
2023/01/28 01:34:37;;;;;;;14.35;11.05;;;;;;;2.95;100.00;103032.84;10376950;28;20065;-69
2023/01/28 01:39:37;;;;;;;15.43;10.38;;;;;;;2.96;100.00;103023.84;10376077;28;20038;-69
2023/01/28 01:44:58;;;;;;;11.55;9.98;;;;;;;2.96;100.00;103028.34;10377702;28;20045;-69
2023/01/28 01:50:00;;;;;;;9.40;8.40;;;;;;;2.96;100.00;103028.34;10376774;28;20030;-69
2023/01/28 01:55:03;;;;;;;9.52;8.40;;;;;;;2.91;100.00;103034.00;10376625;28;20440;-68
2023/01/28 02:00:05;;;;;;;10.65;9.27;;;;;;;2.83;100.00;103028.25;10392234;28;20406;-69
2023/01/28 02:05:10;;;;;;;10.25;8.95;;;;;;;2.79;100.00;103027.56;10391534;28;20038;-69
2023/01/28 02:10:11;;;;;;;11.23;9.55;;;;;;;2.78;100.00;103036.56;10374947;28;20113;-69
2023/01/28 02:15:14;;;;;;;13.93;10.10;;;;;;;2.77;100.00;103040.19;10376097;28;20599;-68
2023/01/28 02:20:35;;;;;;;11.45;9.93;;;;;;;2.76;100.00;103046.50;10376289;28;20029;-69
2023/01/28 02:26:09;;;;;;;11.80;10.20;;;;;;;2.73;100.00;103057.38;10374229;28;20132;-68
2023/01/28 02:31:37;;;;;;;8.95;7.82;;;;;;;2.70;100.00;103054.88;10375014;28;20359;-69
2023/01/28 02:36:47;;;;;;;10.45;8.75;;;;;;;2.71;100.00;103055.75;10376062;28;20096;-68
2023/01/28 02:41:51;;;;;;;11.73;9.98;;;;;;;2.70;100.00;103059.38;10390051;28;20428;-69
2023/01/28 02:58:16;;;;;;;8.18;7.20;;;;;;;2.63;100.00;103060.72;10386576;28;20046;-69
2023/01/28 03:03:49;;;;;;;9.55;8.10;;;;;;;2.64;100.00;103055.25;10374829;28;20044;-69
2023/01/28 03:40:56;;;;;;;8.05;6.97;;;;;;;2.42;100.00;103045.00;10386635;28;20038;-69
2023/01/28 03:45:57;;;;;;;7.55;6.07;;;;;;;2.47;100.00;103053.59;10372840;28;20041;-68
2023/01/28 03:51:00;;;;;;;8.18;6.43;;;;;;;2.52;100.00;103061.34;10373795;28;20068;-69
2023/01/28 03:56:01;;;;;;;6.65;5.90;;;;;;;2.56;100.00;103066.44;10378258;28;20034;-69
2023/01/28 04:01:01;;;;;;;7.55;5.30;;;;;;;2.59;100.00;103080.59;10381248;28;20437;-68
2023/01/28 04:06:05;;;;;;;7.65;5.95;;;;;;;2.60;100.00;103084.97;10381587;28;20069;-68
2023/01/28 04:11:15;;;;;;;6.28;5.65;;;;;;;2.62;100.00;103083.06;10380800;28;20180;-69
2023/01/28 04:16:16;;;;;;;8.32;7.30;;;;;;;2.53;100.00;103079.13;10381650;28;20057;-69
2023/01/28 04:21:16;;;;;;;7.57;6.90;;;;;;;2.49;100.00;103082.91;10395920;28;20129;-69
2023/01/28 04:26:16;;;;;;;8.15;7.03;;;;;;;2.44;100.00;103077.84;10380388;28;20116;-69
2023/01/28 04:31:17;;;;;;;7.22;6.47;;;;;;;2.50;100.00;103073.97;10380591;28;20096;-68
2023/01/28 04:36:17;;;;;;;6.93;6.22;;;;;;;2.46;100.00;103065.28;10378500;28;20033;-69
2023/01/28 04:41:18;;;;;;;6.80;6.10;;;;;;;2.46;100.00;103061.75;10379675;28;20061;-69
2023/01/28 04:46:18;;;;;;;8.45;5.80;;;;;;;2.46;100.00;103059.91;10379918;28;20033;-69
2023/01/28 04:51:19;;;;;;;7.38;6.75;;;;;;;2.30;100.00;103062.63;10379224;28;20439;-69
2023/01/28 04:56:19;;;;;;;5.43;4.88;;;;;;;2.09;100.00;103056.72;10394297;28;20076;-69
2023/01/28 05:01:20;;;;;;;23.27;14.32;;;;;;;2.01;100.00;103056.31;10378250;28;20137;-69
2023/01/28 05:06:20;;;;;;;8.23;7.50;;;;;;;2.05;100.00;103065.88;10377724;28;20116;-68
2023/01/28 05:11:20;;;;;;;7.15;6.13;;;;;;;2.15;100.00;103063.53;10378003;28;20180;-68
2023/01/28 05:16:21;;;;;;;6.20;5.47;;;;;;;2.20;100.00;103068.59;10360946;28;20062;-69
2023/01/28 05:21:21;;;;;;;7.00;6.30;;;;;;;2.25;100.00;103070.06;10377896;28;20046;-69
2023/01/28 05:26:21;;;;;;;6.75;6.18;;;;;;;2.26;100.00;103055.72;10394112;28;20441;-69
2023/01/28 05:31:22;;;;;;;6.10;5.50;;;;;;;2.29;100.00;103060.91;10377716;28;20057;-68
2023/01/28 05:36:22;;;;;;;22.73;6.97;;;;;;;2.38;100.00;103066.66;10376900;28;20446;-69
2023/01/28 05:41:23;;;;;;;6.53;5.82;;;;;;;2.35;100.00;103057.00;10376768;28;20050;-69
2023/01/28 05:46:24;;;;;;;6.47;5.63;;;;;;;2.37;100.00;103065.81;10376605;28;20044;-68
2023/01/28 05:51:24;;;;;;;7.28;6.57;;;;;;;2.41;100.00;103056.66;10376826;28;20075;-68
2023/01/28 05:56:25;;;;;;;10.52;6.40;;;;;;;2.39;100.00;103063.88;10377292;28;20536;-69
2023/01/28 06:01:25;;;;;;;6.65;6.07;;;;;;;2.40;100.00;103064.78;10376622;28;20037;-69
2023/01/28 06:06:25;;;;;;;6.22;5.57;;;;;;;2.35;100.00;103059.69;10377017;28;20417;-69
2023/01/28 06:11:26;;;;;;;6.53;5.85;;;;;;;2.33;100.00;103059.78;10375111;28;20037;-69
2023/01/28 06:16:26;;;;;;;7.90;6.90;;;;;;;2.24;100.00;103054.97;10391581;28;20496;-68
2023/01/28 06:21:27;;;;;;;12.85;7.57;;;;;;;2.32;100.00;103066.06;10375958;28;20030;-69
2023/01/28 06:26:27;;;;;;;7.43;6.45;;;;;;;2.36;100.00;103079.25;10391326;28;20442;-69
2023/01/28 06:31:28;;;;;;;6.93;6.28;;;;;;;2.41;100.00;103083.38;10392458;28;20552;-69
2023/01/28 06:36:28;;;;;;;5.60;5.10;;;;;;;2.39;100.00;103076.41;10375406;28;20116;-69
2023/01/28 06:41:28;;;;;;;6.88;6.20;;;;;;;2.43;100.00;103078.81;10374058;28;20128;-69
2023/01/28 06:46:29;;;;;;;9.95;6.35;;;;;;;2.43;100.00;103086.84;10373920;28;20117;-69
2023/01/28 06:51:29;;;;;;;10.45;6.25;;;;;;;2.44;100.00;103083.19;10375555;28;20066;-69
2023/01/28 06:56:30;;;;;;;5.50;5.03;;;;;;;2.43;100.00;103078.81;10357543;28;20453;-68
2023/01/28 07:01:30;;;;;;;7.70;6.43;;;;;;;2.38;100.00;103077.38;10376215;28;20365;-69
2023/01/28 07:06:30;;;;;;;8.82;6.65;;;;;;;2.37;100.00;103078.31;10374250;28;20137;-69
2023/01/28 07:11:31;;;;;;;10.40;6.22;;;;;;;2.34;100.00;103084.72;10374770;28;20081;-69
2023/01/28 07:16:31;;;;;;;6.43;5.82;;;;;;;2.33;100.00;103072.31;10375271;28;20060;-68
2023/01/28 07:21:32;;;;;;;7.68;6.97;;;;;;;2.24;100.00;103094.22;10374552;28;20069;-69
2023/01/28 07:26:32;;;;;;;12.18;8.65;;;;;;;2.30;100.00;103081.34;10389899;28;20072;-68
2023/01/28 07:31:32;;;;;;;9.02;7.57;;;;;;;2.25;100.00;103091.44;10381165;28;20363;-69
2023/01/28 07:36:33;;;;;;;8.85;7.65;;;;;;;2.15;100.00;103084.91;10381989;28;20131;-68
2023/01/28 07:41:33;;;;;;;8.30;7.50;;;;;;;2.06;100.00;103086.31;10381881;28;20478;-69
2023/01/28 07:46:34;;;;;;;12.30;7.75;;;;;;;2.00;100.00;103093.81;10380377;28;20041;-69
2023/01/28 07:51:34;;;;;;;8.32;7.43;;;;;;;1.84;100.00;103094.69;10381553;28;20057;-68
2023/01/28 07:56:34;;;;;;;10.65;7.63;;;;;;;1.76;100.00;103112.09;10380011;28;20057;-69
2023/01/28 08:01:35;;;;;;;9.95;7.50;;;;;;;1.83;100.00;103106.31;10381191;28;20485;-69
2023/01/28 08:06:36;;;;;;;8.63;7.57;;;;;;;2.42;100.00;103110.97;10379228;28;20045;-69
2023/01/28 08:11:37;;;;;;;11.00;9.75;;;;;;;3.19;100.00;103124.16;10380139;28;20038;-69
2023/01/28 08:16:37;;;;;;;11.10;9.18;;;;;;;3.16;100.00;103131.50;10380422;28;20053;-69
2023/01/28 08:21:38;;;;;;;11.93;8.98;;;;;;;3.08;100.00;103123.94;10380394;28;20167;-69
2023/01/28 08:26:38;;;;;;;11.32;8.27;;;;;;;3.02;100.00;103138.56;10380173;28;20076;-69
2023/01/28 08:31:39;;;;;;;8.68;7.93;;;;;;;3.00;100.00;103140.50;10380659;28;20117;-69
2023/01/28 08:36:39;;;;;;;11.30;8.57;;;;;;;3.10;100.00;103156.84;10362152;28;20041;-69
2023/01/28 08:41:39;;;;;;;9.65;7.95;;;;;;;3.16;100.00;103158.28;10379589;28;20125;-69
2023/01/28 08:46:40;;;;;;;9.63;7.30;;;;;;;3.11;100.00;103155.88;10379037;28;20037;-69
2023/01/28 08:51:40;;;;;;;8.57;7.65;;;;;;;3.01;100.00;103160.09;10379090;28;20092;-69
2023/01/28 08:56:43;;;;;;;13.65;9.85;;;;;;;2.85;100.00;103160.13;10377696;28;20050;-69
2023/01/28 09:01:44;;;;;;;16.92;9.48;;;;;;;3.56;100.00;103169.22;10380391;28;20459;-69
2023/01/28 09:06:44;;;;;;;11.93;8.98;;;;;;;4.57;100.00;103162.66;10379331;28;20121;-69
2023/01/28 09:11:45;;;;;;;10.90;9.43;;;;;;;4.79;100.00;103165.63;10378548;28;20046;-69
2023/01/28 09:16:45;;;;;;;10.05;7.93;;;;;;;4.85;100.00;103173.28;10393261;28;20058;-69
2023/01/28 09:21:45;;;;;;;8.90;8.07;;;;;;;5.12;100.00;103189.31;10378051;28;20038;-69
2023/01/28 09:26:48;;;;;;;8.95;8.05;;;;;;;4.84;100.00;103184.94;10377988;28;20038;-69
2023/01/28 09:31:48;;;;;;;9.95;7.70;;;;;;;5.08;100.00;103190.50;10378038;28;20058;-69
2023/01/28 09:36:49;;;;;;;7.80;7.10;;;;;;;4.62;100.00;103196.25;10378280;28;20034;-69
2023/01/28 09:41:49;;;;;;;9.20;8.40;;;;;;;5.13;100.00;103192.84;10377192;28;20057;-69
2023/01/28 09:46:49;;;;;;;10.20;7.53;;;;;;;5.16;100.00;103211.44;10377081;28;20049;-69
2023/01/28 09:51:52;;;;;;;9.18;7.18;;;;;;;5.10;100.00;103195.75;10376426;28;20294;-69
2023/01/28 09:56:56;;;;;;;12.00;8.77;;;;;;;6.51;100.00;103209.91;10376792;28;20037;-69
2023/01/28 10:02:17;;;;;;;9.23;8.27;;;;;;;7.49;100.00;103207.75;10375426;28;20026;-69
2023/01/28 10:07:33;;;;;;;8.10;7.30;;;;;;;7.85;100.00;103208.53;10375884;28;20026;-69
2023/01/28 10:13:10;;;;;;;9.97;7.80;;;;;;;8.30;100.00;103205.78;10375021;28;20025;-69
2023/01/28 10:18:11;;;;;;;7.80;7.10;;;;;;;8.71;100.00;103205.06;10377240;28;20121;-69
2023/01/28 10:23:25;;;;;;;9.30;6.75;;;;;;;8.72;100.00;103189.72;10375797;28;20121;-70
2023/01/28 10:28:27;;;;;;;7.93;6.97;;;;;;;9.26;100.00;103199.50;10374013;28;20034;-69
2023/01/28 10:33:27;;;;;;;6.57;5.47;;;;;;;9.14;100.00;103192.47;10376812;28;20037;-70
2023/01/28 10:38:27;;;;;;;10.07;5.72;;;;;;;8.93;100.00;103197.84;10375461;28;20492;-69
2023/01/28 10:43:30;;;;;;;6.82;6.13;;;;;;;9.51;100.00;103182.88;10391207;28;20042;-70
2023/01/28 10:48:45;;;;;;;8.40;6.90;;;;;;;9.85;100.00;103174.44;10389786;28;20037;-69
2023/01/28 10:53:45;;;;;;;8.93;6.00;;;;;;;10.20;100.00;103167.72;10389368;28;20022;-70
2023/01/28 10:58:59;;;;;;;7.82;6.15;;;;;;;10.11;100.00;103152.31;10373809;28;20458;-70
2023/01/28 11:03:59;;;;;;;6.72;6.13;;;;;;;9.59;100.00;103138.91;10392563;28;20029;-70
2023/01/28 11:09:00;;;;;;;8.75;6.45;;;;;;;9.86;100.00;103108.53;10384445;28;20470;-69
2023/01/28 11:14:00;;;;;;;7.70;5.25;;;;;;;9.62;100.00;103118.84;10383119;28;20140;-70
2023/01/28 11:19:05;;;;;;;9.38;6.75;;;;;;;9.77;100.00;103099.38;10381261;28;20046;-70
2023/01/28 11:24:12;;;;;;;6.18;5.68;;;;;;;9.88;100.00;103089.44;10397529;28;20409;-70
2023/01/28 11:29:30;;;;;;;9.35;6.55;;;;;;;9.42;88.40;103088.16;10397394;28;20112;-70
2023/01/28 11:34:33;;;;;;;6.70;5.60;;;;;;;8.84;90.36;103059.00;10381633;28;20030;-70
2023/01/28 11:39:33;;;;;;;5.53;4.45;;;;;;;8.92;94.23;103061.03;10397148;28;20033;-70
2023/01/28 11:44:34;;;;;;;6.30;5.28;;;;;;;9.11;96.01;103087.31;10381440;28;20030;-70
2023/01/28 11:50:15;;;;;;;14.50;8.02;;;;;;;9.58;100.00;103077.69;10397283;28;20050;-70
2023/01/28 11:55:33;;;;;;;6.25;4.80;;;;;;;9.55;100.00;103076.09;10381666;28;20378;-70
2023/01/28 12:00:56;;;;;;;6.00;5.32;;;;;;;9.73;100.00;103088.97;10381853;28;20033;-70
2023/01/28 12:06:02;;;;;;;5.28;4.78;;;;;;;9.77;100.00;103079.59;10380793;28;20037;-70
2023/01/28 12:16:57;;;;;;;4.85;4.43;;;;;;;9.97;100.00;103115.66;10395120;28;20053;-70
2023/01/28 12:22:02;;;;;;;7.75;5.90;;;;;;;10.39;100.00;103131.72;10380575;28;20072;-71
2023/01/28 12:27:21;;;;;;;8.27;5.43;;;;;;;9.97;100.00;103131.91;10381582;28;20044;-69
2023/01/28 12:32:43;;;;;;;9.45;6.32;;;;;;;10.11;100.00;103114.41;10381602;28;20463;-70
2023/01/28 12:38:42;;;;;;;7.10;5.00;;;;;;;9.37;100.00;103093.13;10378604;28;20057;-69
2023/01/28 12:44:06;;;;;;;9.85;4.45;;;;;;;8.84;100.00;103069.81;10344157;28;20176;-69
2023/01/28 12:49:44;;;;;;;6.50;4.90;;;;;;;9.43;100.00;103052.00;10379092;28;20038;-69
2023/01/28 12:55:02;;;;;;;6.28;5.68;;;;;;;9.48;98.21;103028.97;10377496;28;20363;-69
2023/01/28 13:00:05;;;;;;;5.32;4.82;;;;;;;9.67;100.00;103000.25;10394644;28;20496;-69
2023/01/28 13:05:09;;;;;;;6.97;5.72;;;;;;;9.65;100.00;103003.09;10377533;28;20034;-69
2023/01/28 13:10:26;;;;;;;7.30;5.72;;;;;;;9.67;100.00;103005.69;10394673;28;20044;-69
2023/01/28 13:15:26;;;;;;;7.15;5.20;;;;;;;9.35;100.00;103009.44;10378161;28;20037;-69
2023/01/28 13:20:34;;;;;;;5.72;5.13;;;;;;;9.16;100.00;102999.41;10378752;28;20041;-69
2023/01/28 13:25:35;;;;;;;6.32;5.55;;;;;;;9.26;100.00;103023.78;10377724;28;20092;-69
2023/01/28 13:30:48;;;;;;;6.57;5.18;;;;;;;8.74;100.00;103020.25;10376150;28;20470;-70
2023/01/28 13:35:52;;;;;;;6.03;5.43;;;;;;;8.33;100.00;103017.41;10377561;28;20026;-69
2023/01/28 13:40:59;;;;;;;9.48;4.90;;;;;;;8.42;100.00;103031.97;10392594;28;20091;-69
2023/01/28 13:46:01;;;;;;;5.30;4.50;;;;;;;8.04;100.00;103041.47;10377123;28;20124;-69
2023/01/28 13:51:02;;;;;;;6.38;4.68;;;;;;;7.75;100.00;103048.41;10392079;28;20036;-69
2023/01/28 13:56:05;;;;;;;6.07;4.18;;;;;;;7.47;100.00;103029.13;10376825;28;20025;-70
2023/01/28 14:01:27;;;;;;;6.55;4.88;;;;;;;7.44;100.00;103032.91;10391757;28;20033;-70
2023/01/28 14:06:53;;;;;;;7.72;5.85;;;;;;;7.22;100.00;103023.00;10377610;28;20481;-69
2023/01/28 14:12:26;;;;;;;11.23;6.47;;;;;;;6.70;100.00;103037.91;10366034;28;20446;-69
2023/01/28 14:17:29;;;;;;;14.48;5.80;;;;;;;6.40;100.00;103049.22;10375143;28;20061;-70
2023/01/28 14:22:30;;;;;;;8.65;6.63;;;;;;;6.32;100.00;103051.66;10375941;28;20596;-69
2023/01/28 14:27:35;;;;;;;10.30;6.80;;;;;;;6.29;100.00;103050.03;10392017;28;20057;-70
2023/01/28 14:32:42;;;;;;;8.82;5.20;;;;;;;6.33;100.00;103041.72;10374556;28;20080;-69
2023/01/28 14:37:43;;;;;;;7.80;5.72;;;;;;;6.43;100.00;103031.97;10313560;28;20046;-70
2023/01/28 14:42:45;;;;;;;7.38;5.57;;;;;;;6.31;100.00;103023.00;10375022;28;20049;-70
2023/01/28 14:48:06;;;;;;;6.30;4.97;;;;;;;6.31;100.00;103031.06;10390267;28;20026;-69
2023/01/28 14:53:17;;;;;;;6.40;4.95;;;;;;;6.39;100.00;103031.34;10363201;28;20044;-69
2023/01/28 14:58:22;;;;;;;10.25;6.55;;;;;;;6.42;100.00;103038.34;10375803;28;20488;-70
2023/01/28 15:03:22;;;;;;;7.00;5.43;;;;;;;6.39;100.00;103052.88;10390767;28;20041;-70
2023/01/28 15:08:23;;;;;;;6.80;6.13;;;;;;;6.43;100.00;103061.56;10390569;28;20484;-69
2023/01/28 15:13:28;;;;;;;8.52;6.15;;;;;;;6.34;100.00;103071.19;10373434;28;20040;-69
2023/01/28 15:18:31;;;;;;;13.35;7.57;;;;;;;6.33;100.00;103068.63;10375031;28;20046;-69
2023/01/28 15:23:39;;;;;;;11.40;6.53;;;;;;;6.22;100.00;103066.75;10375021;28;20386;-69
2023/01/28 15:28:39;;;;;;;6.85;6.07;;;;;;;6.12;100.00;103073.78;10375026;28;20525;-69
2023/01/28 15:33:40;;;;;;;19.90;6.05;;;;;;;6.04;100.00;103074.38;10373494;28;20125;-70
2023/01/28 15:38:40;;;;;;;6.03;4.32;;;;;;;5.96;100.00;103049.88;10374816;28;20458;-70
2023/01/28 15:43:45;;;;;;;10.93;3.42;;;;;;;5.96;100.00;103074.94;10389927;28;20026;-69
2023/01/28 15:48:52;;;;;;;1.90;1.80;;;;;;;5.88;100.00;103066.56;10372462;28;20026;-70
2023/01/28 15:54:02;;;;;;;1.65;1.55;;;;;;;5.85;100.00;103071.31;10371840;28;20061;-70
2023/01/28 15:59:14;;;;;;;3.40;2.38;;;;;;;5.82;100.00;103088.53;10454216;28;20037;-70
2023/01/28 16:04:27;;;;;;;9.10;2.28;;;;;;;5.77;100.00;103072.72;10420895;28;20496;-69
2023/01/28 16:09:29;;;;;;;2.08;1.98;;;;;;;5.75;100.00;103080.03;10453131;28;20438;-69
2023/01/28 16:14:30;;;;;;;2.00;1.90;;;;;;;5.72;100.00;103091.03;10421690;28;20036;-69
2023/01/28 16:19:44;;;;;;;5.10;2.63;;;;;;;5.68;100.00;103081.47;10453072;28;20097;-70
2023/01/28 16:24:52;;;;;;;3.85;2.55;;;;;;;5.65;100.00;103089.75;10437147;28;20045;-69
2023/01/28 16:29:52;;;;;;;6.00;2.35;;;;;;;5.58;100.00;103075.03;10420524;28;20040;-69
2023/01/28 16:34:52;;;;;;;9.45;3.25;;;;;;;5.52;100.00;103072.78;10453052;28;20031;-69
2023/01/28 16:39:53;;;;;;;4.53;3.05;;;;;;;5.50;100.00;103080.97;10420873;28;20033;-69
2023/01/28 16:44:53;;;;;;;8.43;3.38;;;;;;;5.48;100.00;103073.97;10420541;28;20107;-69
2023/01/28 16:49:54;;;;;;;7.10;3.08;;;;;;;5.43;100.00;103068.94;10420393;28;20454;-70
2023/01/28 16:54:54;;;;;;;3.08;2.72;;;;;;;5.40;100.00;103076.38;10452282;28;20034;-69
2023/01/28 16:59:55;;;;;;;5.80;2.60;;;;;;;5.36;100.00;103081.97;10420068;28;20044;-69
2023/01/28 17:04:55;;;;;;;5.45;3.58;;;;;;;5.29;100.00;103072.59;10418665;28;20044;-69
2023/01/28 17:09:55;;;;;;;4.45;4.05;;;;;;;5.24;100.00;103082.00;10419032;28;20469;-69
2023/01/28 17:14:56;;;;;;;5.38;3.17;;;;;;;5.17;100.00;103100.38;10418674;28;20083;-69
2023/01/28 17:19:56;;;;;;;5.47;3.50;;;;;;;5.11;100.00;103092.75;10418200;28;20049;-69
2023/01/28 17:24:56;;;;;;;7.72;4.25;;;;;;;5.09;100.00;103094.66;10419088;28;20397;-70
2023/01/28 17:29:57;;;;;;;9.93;5.20;;;;;;;5.06;100.00;103097.56;10419749;28;20115;-69
2023/01/28 17:34:57;;;;;;;17.77;4.55;;;;;;;5.07;100.00;103091.22;10419132;28;20029;-69
2023/01/28 17:39:58;;;;;;;9.20;4.28;;;;;;;5.05;100.00;103095.84;10418426;28;20041;-69
2023/01/28 17:45:01;;;;;;;13.68;6.38;;;;;;;5.03;100.00;103101.31;10418739;28;20366;-69
2023/01/28 17:50:02;;;;;;;10.55;5.85;;;;;;;5.02;100.00;103096.06;10418000;28;20091;-69
2023/01/28 17:55:03;;;;;;;10.40;5.68;;;;;;;5.04;100.00;103100.38;10417668;28;20040;-69
2023/01/28 18:00:05;;;;;;;5.75;5.20;;;;;;;5.02;100.00;103094.22;10449616;28;20103;-69
2023/01/28 18:05:06;;;;;;;8.98;4.40;;;;;;;4.98;100.00;103095.44;10416855;28;20037;-69
2023/01/28 18:10:07;;;;;;;10.85;5.63;;;;;;;4.97;100.00;103098.19;10416071;28;20092;-69
2023/01/28 18:15:08;;;;;;;9.23;6.72;;;;;;;4.98;100.00;103107.97;10416656;28;20478;-69
2023/01/28 18:20:09;;;;;;;12.02;4.88;;;;;;;4.95;100.00;103121.63;10449873;28;20081;-69
2023/01/28 18:25:16;;;;;;;6.47;5.72;;;;;;;4.89;100.00;103133.66;10416792;28;20433;-69
2023/01/28 18:30:17;;;;;;;;;;;;;;;4.79;100.00;103140.63;10415633;28;20108;-69
2023/01/28 18:35:17;;;;;;;4.18;3.53;;;;;;;4.72;100.00;103140.16;10416345;28;20008;-69
2023/01/28 18:40:18;;;;;;;9.23;4.93;;;;;;;4.71;100.00;103151.84;10447692;28;20052;-69
2023/01/28 18:45:18;;;;;;;5.07;3.85;;;;;;;4.72;100.00;103144.66;10416795;28;20025;-69
2023/01/28 18:50:19;;;;;;;9.65;5.13;;;;;;;4.69;100.00;103148.44;10447421;28;20034;-69
2023/01/28 18:55:20;;;;;;;7.47;4.95;;;;;;;4.63;100.00;103146.16;10415819;28;20029;-70
2023/01/28 19:00:20;;;;;;;5.45;4.50;;;;;;;4.62;100.00;103152.47;10416831;28;20041;-69
2023/01/28 19:05:21;;;;;;;13.45;5.63;;;;;;;4.63;100.00;103151.53;10415675;28;20034;-69
2023/01/28 19:10:22;;;;;;;10.15;7.60;;;;;;;4.71;100.00;103149.16;10415665;28;20037;-70
2023/01/28 19:15:23;;;;;;;12.68;6.88;;;;;;;4.75;100.00;103139.09;10415244;28;20034;-69
2023/01/28 19:20:23;;;;;;;11.23;7.43;;;;;;;4.76;100.00;103135.47;10430530;28;20053;-69
2023/01/28 19:25:24;;;;;;;9.43;7.15;;;;;;;4.80;100.00;103136.97;10417427;28;20030;-69
2023/01/28 19:30:24;;;;;;;10.25;5.90;;;;;;;4.81;100.00;103136.84;10423743;28;20044;-68
2023/01/28 19:35:26;;;;;;;9.20;6.57;;;;;;;4.81;100.00;103146.72;10421925;28;20485;-69
2023/01/28 19:40:27;;;;;;;10.57;5.55;;;;;;;4.82;100.00;103133.22;10421934;28;20037;-70
2023/01/28 19:45:28;;;;;;;7.03;5.20;;;;;;;4.82;100.00;103135.03;10422971;28;20495;-69
2023/01/28 19:50:29;;;;;;;4.40;4.05;;;;;;;4.84;100.00;103141.16;10454596;28;20041;-69
2023/01/28 19:55:29;;;;;;;8.02;6.15;;;;;;;4.81;100.00;103131.47;10422489;28;20404;-69
2023/01/28 20:00:30;;;;;;;5.80;4.95;;;;;;;4.82;100.00;103114.41;10421137;28;20029;-69
2023/01/28 20:05:30;;;;;;;10.70;4.82;;;;;;;4.83;100.00;103116.13;10439318;28;20377;-69
2023/01/28 20:10:31;;;;;;;6.22;4.43;;;;;;;4.79;100.00;103116.47;10421430;28;20025;-70
2023/01/28 20:15:31;;;;;;;8.20;4.13;;;;;;;4.77;100.00;103116.53;10419805;28;20465;-69
2023/01/28 20:20:32;;;;;;;10.18;5.47;;;;;;;4.69;100.00;103121.59;10419754;28;20599;-69
2023/01/28 20:25:32;;;;;;;7.30;5.47;;;;;;;4.58;100.00;103118.75;10421519;28;20037;-69
2023/01/28 20:30:33;;;;;;;17.83;7.60;;;;;;;4.51;100.00;103112.09;10422993;28;20116;-69
2023/01/28 20:35:33;;;;;;;10.80;9.05;;;;;;;4.31;100.00;103118.81;10421738;28;20342;-69
2023/01/28 20:40:35;;;;;;;9.30;7.05;;;;;;;4.26;100.00;103116.41;10420819;28;20029;-69
2023/01/28 20:45:35;;;;;;;10.07;7.95;;;;;;;4.25;100.00;103119.22;10436062;28;20044;-69
2023/01/28 20:50:36;;;;;;;11.90;10.02;;;;;;;4.18;100.00;103105.34;10420946;28;20124;-69
2023/01/28 20:55:36;;;;;;;10.05;8.43;;;;;;;4.14;100.00;103110.03;10452220;28;20037;-69
2023/01/28 21:00:37;;;;;;;10.18;8.57;;;;;;;4.19;100.00;103115.09;10420765;28;20120;-69
2023/01/28 21:05:37;;;;;;;11.00;9.25;;;;;;;4.08;100.00;103097.03;10419729;28;20112;-69
2023/01/28 21:10:39;;;;;;;13.15;8.30;;;;;;;4.10;100.00;103102.31;10418569;28;20092;-69
2023/01/28 21:15:40;;;;;;;11.10;9.02;;;;;;;4.12;100.00;103101.25;10434496;28;20033;-69
2023/01/28 21:20:40;;;;;;;11.60;8.98;;;;;;;4.16;100.00;103108.13;10419872;28;20033;-69
2023/01/28 21:25:41;;;;;;;10.25;8.52;;;;;;;4.20;100.00;103109.63;10419095;28;20061;-69
2023/01/28 21:30:42;;;;;;;13.90;8.30;;;;;;;4.26;100.00;103119.09;10417771;28;20037;-69
2023/01/28 21:35:42;;;;;;;10.85;8.35;;;;;;;4.26;100.00;103115.56;10418317;28;20116;-69
2023/01/28 21:40:43;;;;;;;11.02;8.35;;;;;;;4.22;100.00;103120.28;10418690;28;20117;-69
2023/01/28 21:45:46;;;;;;;13.73;9.45;;;;;;;4.34;100.00;103127.50;10417749;28;20053;-69
2023/01/28 21:56:06;;;;;;;13.40;9.73;;;;;;;4.33;100.00;103112.34;10417971;28;20120;-69
2023/01/28 22:01:08;;;;;;;10.32;9.02;;;;;;;4.22;100.00;103093.47;10417205;28;20074;-69
2023/01/28 22:06:08;;;;;;;13.43;9.93;;;;;;;4.34;100.00;103094.44;10416267;28;20492;-69
2023/01/28 22:11:09;;;;;;;19.15;9.52;;;;;;;4.30;100.00;103099.16;10416832;28;20069;-69
2023/01/28 22:16:09;;;;;;;11.57;9.32;;;;;;;4.33;100.00;103095.41;10416758;28;20057;-69
2023/01/28 22:21:11;;;;;;;15.02;11.13;;;;;;;4.30;100.00;103087.56;10417584;28;20033;-70
2023/01/28 22:26:11;;;;;;;12.73;10.20;;;;;;;4.34;100.00;103084.59;10431589;28;20033;-69
2023/01/28 22:31:13;;;;;;;12.95;10.38;;;;;;;4.31;100.00;103090.16;10416485;28;20037;-69
2023/01/28 22:36:14;;;;;;;11.52;9.98;;;;;;;4.30;100.00;103082.19;10414850;28;20032;-70
2023/01/28 22:41:21;;;;;;;11.82;9.68;;;;;;;4.30;100.00;103083.06;10431761;28;20030;-69
2023/01/28 22:46:22;;;;;;;;;;;;;;;4.23;100.00;103076.38;10416728;28;20048;-69
2023/01/28 22:51:23;;;;;;;14.15;10.48;;;;;;;4.25;100.00;103069.13;10416667;28;20369;-69
2023/01/28 22:56:25;;;;;;;12.85;10.13;;;;;;;4.26;100.00;103070.81;10415523;28;20037;-69
2023/01/28 23:01:26;;;;;;;19.38;9.77;;;;;;;4.26;100.00;103070.81;10413818;28;20033;-69
2023/01/28 23:06:26;;;;;;;13.07;11.23;;;;;;;4.26;100.00;103076.19;10430593;28;20030;-69
2023/01/28 23:11:27;;;;;;;14.82;10.40;;;;;;;4.25;100.00;103069.13;10416050;28;20025;-69
2023/01/28 23:27:06;;;;;;;10.68;8.10;;;;;;;4.27;100.00;103055.59;10443288;28;20038;-69
2023/01/28 23:32:08;;;;;;;16.23;11.73;;;;;;;4.24;100.00;103050.44;10415877;28;20041;-69
2023/01/28 23:37:09;;;;;;;13.30;10.73;;;;;;;4.27;100.00;103044.84;10416217;28;20030;-69
2023/01/28 23:42:11;;;;;;;14.40;10.70;;;;;;;4.28;100.00;103035.88;10431247;28;20025;-69
2023/01/28 23:47:12;;;;;;;14.85;10.00;;;;;;;4.19;100.00;103035.50;10430783;28;20025;-70
2023/01/28 23:52:12;;;;;;;12.13;10.00;;;;;;;4.13;100.00;103018.97;10446377;28;20404;-69
2023/01/28 23:57:13;;;;;;;15.05;11.80;;;;;;;4.14;100.00;103021.53;10415901;28;20040;-69
